Time;durP1;ratioP1;P1;durP2;ratioP2;P2;SDS_P1;SDS_P2;PMS_P1;PMS_P2;Temp;Humidity;BMP_temperature;BMP_pressure;BME280_temperature;BME280_humidity;BME280_pressure;Samples;Min_cycle;Max_cycle;Signal;HPM_P1;HPM_P2
2022/05/02 00:02:22;;;;;;;24.40;15.93;;;;;;;8.14;69.28;102091.34;5055884;28;20325;-78
2022/05/02 00:04:47;;;;;;;23.90;15.18;;;;;;;8.12;69.20;102092.97;5063650;28;20054;-78
2022/05/02 00:07:13;;;;;;;23.63;15.25;;;;;;;8.11;69.01;102091.19;5062085;28;20057;-78
2022/05/02 00:09:38;;;;;;;21.83;15.38;;;;;;;8.09;69.25;102087.59;5063368;28;20021;-78
2022/05/02 00:12:04;;;;;;;22.85;15.55;;;;;;;8.09;69.92;102081.53;5062490;28;20273;-78
2022/05/02 00:14:29;;;;;;;21.40;15.60;;;;;;;8.05;69.40;102082.16;5063138;28;20040;-78
2022/05/02 00:16:54;;;;;;;23.42;14.90;;;;;;;8.03;69.34;102078.63;5077028;28;20155;-78
2022/05/02 00:19:19;;;;;;;23.85;16.13;;;;;;;8.02;69.48;102082.88;5061783;28;20059;-78
2022/05/02 00:21:45;;;;;;;24.13;15.30;;;;;;;7.96;69.33;102077.38;5062521;28;20279;-78
2022/05/02 00:24:10;;;;;;;24.77;15.98;;;;;;;7.87;68.97;102071.69;5061905;28;20021;-78
2022/05/02 00:26:35;;;;;;;24.55;16.17;;;;;;;7.81;69.40;102075.72;5060307;28;20021;-78
2022/05/02 00:29:01;;;;;;;22.92;15.35;;;;;;;7.77;69.51;102073.78;5062201;28;20096;-78
2022/05/02 00:31:26;;;;;;;23.65;15.32;;;;;;;7.68;69.13;102070.69;5059917;28;20094;-78
2022/05/02 00:33:51;;;;;;;23.75;15.90;;;;;;;7.67;69.34;102068.88;5058117;28;20260;-78
2022/05/02 00:36:17;;;;;;;22.17;15.63;;;;;;;7.63;69.80;102067.84;5057754;28;20239;-78
2022/05/02 00:38:43;;;;;;;24.38;15.23;;;;;;;7.60;70.21;102064.19;5062887;28;20053;-78
2022/05/02 00:41:08;;;;;;;23.42;15.65;;;;;;;7.60;70.57;102065.09;5062149;28;20029;-78
2022/05/02 00:43:34;;;;;;;25.98;16.42;;;;;;;7.60;70.95;102064.19;5063044;28;20040;-78
2022/05/02 00:45:59;;;;;;;24.33;15.98;;;;;;;7.58;70.72;102061.50;5078240;28;20028;-78
2022/05/02 00:48:25;;;;;;;22.98;15.63;;;;;;;7.53;70.75;102059.44;5061393;28;20055;-78
2022/05/02 00:50:50;;;;;;;23.98;15.93;;;;;;;7.49;70.79;102055.81;5061988;28;20021;-78
2022/05/02 00:53:20;;;;;;;24.15;16.27;;;;;;;7.46;70.60;102056.53;5062276;28;20043;-78
2022/05/02 00:55:46;;;;;;;25.75;16.48;;;;;;;7.39;70.38;102059.59;5062272;28;20088;-78
2022/05/02 00:58:13;;;;;;;24.30;15.95;;;;;;;7.35;70.12;102061.94;5061844;28;20052;-78
2022/05/02 01:00:39;;;;;;;23.60;15.00;;;;;;;7.35;69.19;102061.94;5062356;28;20029;-78
2022/05/02 01:03:07;;;;;;;22.52;14.60;;;;;;;7.26;69.07;102058.00;5059974;28;20033;-78
2022/05/02 01:07:08;;;;;;;22.80;14.85;;;;;;;7.23;68.64;102059.53;5058790;28;20049;-78
2022/05/02 01:08:30;;;;;;;24.75;14.77;;;;;;;7.18;68.51;102060.97;5059428;28;20090;-78
2022/05/02 01:10:56;;;;;;;20.63;14.75;;;;;;;7.10;69.53;102058.81;5076117;28;20040;-78
2022/05/02 01:13:38;;;;;;;21.05;14.38;;;;;;;7.08;69.86;102057.84;5059795;28;20100;-78
2022/05/02 01:16:21;;;;;;;23.33;15.82;;;;;;;7.03;70.99;102061.88;5057892;28;20111;-78
2022/05/02 01:18:49;;;;;;;22.63;14.98;;;;;;;7.05;71.00;102056.78;5056782;28;20203;-78
2022/05/02 01:21:16;;;;;;;24.48;14.82;;;;;;;7.03;71.07;102053.22;5059569;28;20039;-78
2022/05/02 01:23:44;;;;;;;22.48;14.45;;;;;;;6.99;70.82;102057.31;5060795;28;20100;-78
2022/05/02 01:26:09;;;;;;;22.08;14.57;;;;;;;6.96;71.67;102052.81;5059627;28;20195;-78
2022/05/02 01:28:53;;;;;;;23.80;15.30;;;;;;;6.97;71.51;102059.81;5055637;28;20307;-78
2022/05/02 01:31:19;;;;;;;25.15;15.05;;;;;;;6.90;72.31;102054.19;5059907;28;20021;-78
2022/05/02 01:33:45;;;;;;;21.65;14.98;;;;;;;6.89;72.17;102048.09;5077620;28;20013;-78
2022/05/02 01:36:11;;;;;;;26.33;16.00;;;;;;;6.89;72.37;102055.88;5054359;28;20032;-78
2022/05/02 01:38:37;;;;;;;23.20;15.18;;;;;;;6.86;71.58;102049.63;5055108;28;20017;-78
2022/05/02 01:41:04;;;;;;;21.92;14.57;;;;;;;6.80;71.13;102052.75;5054046;28;20168;-78
2022/05/02 01:43:31;;;;;;;22.95;15.45;;;;;;;6.76;71.27;102048.19;5057646;28;20035;-78
2022/05/02 01:45:56;;;;;;;21.63;14.43;;;;;;;6.71;71.85;102044.47;5062311;28;20021;-78
2022/05/02 01:48:21;;;;;;;23.77;15.30;;;;;;;6.71;72.04;102045.34;5047955;28;20106;-78
2022/05/02 01:50:46;;;;;;;23.42;14.75;;;;;;;6.68;71.53;102047.75;5053946;28;20021;-78
2022/05/02 01:53:12;;;;;;;25.63;15.15;;;;;;;6.67;71.49;102048.56;5056887;28;20040;-78
2022/05/02 01:55:37;;;;;;;22.80;14.77;;;;;;;6.73;71.77;102043.72;5061968;28;20062;-78
2022/05/02 01:58:02;;;;;;;22.77;14.60;;;;;;;6.70;71.80;102035.78;5062652;28;20021;-78
2022/05/02 02:00:28;;;;;;;24.55;15.25;;;;;;;6.69;71.98;102036.59;5065684;28;20104;-78
2022/05/02 02:02:53;;;;;;;21.63;14.70;;;;;;;6.69;71.98;102041.78;5065145;28;20029;-78
2022/05/02 02:08:03;;;;;;;26.60;14.95;;;;;;;6.57;71.47;102035.88;5051418;28;20263;-78
2022/05/02 02:10:28;;;;;;;22.85;15.55;;;;;;;6.52;71.57;102027.84;5063651;28;20291;-78
2022/05/02 02:12:53;;;;;;;24.48;15.95;;;;;;;6.47;72.02;102033.53;5059334;28;20045;-78
2022/05/02 02:15:19;;;;;;;24.17;15.18;;;;;;;6.42;72.12;102034.16;5053187;28;20025;-78
2022/05/02 02:17:44;;;;;;;26.38;15.82;;;;;;;6.41;71.80;102034.06;5056629;28;20531;-78
2022/05/02 02:20:12;;;;;;;27.00;16.52;;;;;;;6.42;71.91;102039.31;5059673;28;20027;-78
2022/05/02 02:22:37;;;;;;;26.65;17.00;;;;;;;6.40;72.54;102033.19;5056325;28;20067;-78
2022/05/02 02:25:04;;;;;;;27.73;16.90;;;;;;;6.33;71.99;102036.19;5064419;28;20036;-78
2022/05/02 02:27:30;;;;;;;29.65;16.92;;;;;;;6.30;71.91;102038.59;5062508;28;20032;-78
2022/05/02 02:29:55;;;;;;;26.73;16.45;;;;;;;6.27;72.14;102038.41;5062709;28;20096;-78
2022/05/02 02:32:21;;;;;;;25.10;16.27;;;;;;;6.26;72.46;102039.22;5064455;28;20335;-78
2022/05/02 02:34:46;;;;;;;26.48;17.13;;;;;;;6.23;72.74;102033.88;5056553;28;20017;-78
2022/05/02 02:37:11;;;;;;;23.55;16.25;;;;;;;6.21;72.67;102032.84;5060169;28;20017;-78
2022/05/02 02:39:36;;;;;;;25.40;16.40;;;;;;;6.16;73.11;102026.53;5065027;28;20021;-78
2022/05/02 02:42:02;;;;;;;24.27;16.20;;;;;;;6.12;72.96;102030.59;5080501;28;20021;-78
2022/05/02 02:44:27;;;;;;;26.40;16.52;;;;;;;6.06;73.12;102030.25;5062264;28;20028;-78
2022/05/02 02:46:53;;;;;;;25.65;16.13;;;;;;;6.05;72.59;102028.44;5055694;28;20058;-78
2022/05/02 02:49:18;;;;;;;24.58;15.93;;;;;;;6.05;73.16;102019.00;5055023;28;20037;-78
2022/05/02 02:51:43;;;;;;;26.23;15.88;;;;;;;6.02;73.19;102029.16;5064370;28;20070;-78
2022/05/02 02:54:08;;;;;;;25.15;15.90;;;;;;;5.99;72.95;102016.03;5051518;28;20027;-78
2022/05/02 02:56:34;;;;;;;24.98;15.50;;;;;;;5.96;72.88;102010.63;5057113;28;20088;-78
2022/05/02 02:58:59;;;;;;;23.92;15.50;;;;;;;5.94;72.93;102009.66;5056818;28;20033;-78
2022/05/02 03:01:25;;;;;;;24.95;14.95;;;;;;;5.95;72.38;102010.53;5057609;28;20036;-78
2022/05/02 03:03:51;;;;;;;23.00;14.35;;;;;;;5.93;73.06;102007.88;5064319;28;20037;-78
2022/05/02 03:06:16;;;;;;;21.88;14.63;;;;;;;5.92;73.19;102008.66;5061383;28;20319;-78
2022/05/02 03:08:41;;;;;;;22.77;14.98;;;;;;;5.93;72.45;102002.69;5059331;28;20051;-78
2022/05/02 03:11:07;;;;;;;26.27;15.55;;;;;;;5.97;72.61;102001.16;5064252;28;20031;-78
2022/05/02 03:13:36;;;;;;;25.48;15.80;;;;;;;5.92;72.58;102004.41;5078307;28;20021;-78
2022/05/02 03:16:02;;;;;;;24.05;14.82;;;;;;;5.91;73.13;102004.31;5059257;28;20335;-78
2022/05/02 03:18:28;;;;;;;23.83;15.32;;;;;;;5.92;72.75;102006.06;5063686;28;20271;-78
2022/05/02 03:20:53;;;;;;;25.85;15.82;;;;;;;5.89;72.49;102004.22;5064346;28;20032;-78
2022/05/02 03:23:19;;;;;;;25.08;15.15;;;;;;;5.85;72.47;101994.47;5062839;28;20095;-78
2022/05/02 03:25:44;;;;;;;25.58;16.35;;;;;;;5.84;72.99;102002.13;5060567;28;20067;-78
2022/05/02 03:28:10;;;;;;;27.45;17.27;;;;;;;5.80;72.65;102001.03;5057289;28;20041;-78
2022/05/02 03:30:35;;;;;;;27.63;17.35;;;;;;;5.76;72.88;102001.66;5060514;28;20052;-78
2022/05/02 03:33:02;;;;;;;25.90;16.88;;;;;;;5.71;73.32;102000.50;5055750;28;20040;-78
2022/05/02 03:35:27;;;;;;;27.08;16.58;;;;;;;5.66;73.31;102000.22;5064148;28;20161;-78
2022/05/02 03:37:52;;;;;;;28.27;17.45;;;;;;;5.63;73.61;101992.22;5061473;28;20025;-78
2022/05/02 03:40:18;;;;;;;26.80;17.15;;;;;;;5.64;73.39;101994.03;5055558;28;20092;-78
2022/05/02 03:42:43;;;;;;;25.65;16.60;;;;;;;5.64;73.43;101996.63;5055192;28;20017;-78
2022/05/02 03:45:09;;;;;;;26.33;16.05;;;;;;;5.60;73.72;101993.75;5057503;28;20048;-78
2022/05/02 03:47:34;;;;;;;25.58;16.27;;;;;;;5.55;73.68;101990.88;5054105;28;20024;-78
2022/05/02 03:49:59;;;;;;;26.98;16.90;;;;;;;5.55;73.92;101999.53;5063855;28;20096;-78
2022/05/02 03:52:25;;;;;;;27.67;16.83;;;;;;;5.54;73.89;102007.19;5063252;28;20025;-78
2022/05/02 03:54:50;;;;;;;26.52;17.42;;;;;;;5.52;73.79;101999.34;5058740;28;20268;-78
2022/05/02 03:57:15;;;;;;;29.58;17.35;;;;;;;5.56;73.57;101997.81;5061800;28;20104;-78
2022/05/02 03:59:41;;;;;;;26.77;17.10;;;;;;;5.54;73.68;101996.84;5069777;28;20028;-78
2022/05/02 04:02:06;;;;;;;28.15;17.65;;;;;;;5.48;73.22;101999.94;5052029;28;20053;-78
2022/05/02 04:04:31;;;;;;;29.25;17.70;;;;;;;5.51;74.07;102007.00;5057051;28;20055;-78
2022/05/02 04:06:57;;;;;;;28.30;17.42;;;;;;;5.52;73.81;102004.50;5071371;28;20287;-79
2022/05/02 04:09:22;;;;;;;27.52;17.40;;;;;;;5.52;73.47;101998.44;5063219;28;20076;-78
2022/05/02 04:11:48;;;;;;;27.52;17.60;;;;;;;5.48;73.65;102001.63;5063892;28;20028;-78
2022/05/02 04:14:13;;;;;;;31.20;17.45;;;;;;;5.45;73.65;102004.03;5078276;28;20155;-78
2022/05/02 04:16:39;;;;;;;28.00;18.00;;;;;;;5.43;73.23;102001.34;5061780;28;20139;-78
2022/05/02 04:19:04;;;;;;;31.17;17.65;;;;;;;5.43;73.62;102003.03;5061601;28;20044;-79
2022/05/02 04:21:29;;;;;;;33.95;18.10;;;;;;;5.38;73.65;102000.16;5063238;28;20271;-78
2022/05/02 04:23:54;;;;;;;31.33;18.60;;;;;;;5.35;74.08;102003.44;5062653;28;20035;-79
2022/05/02 04:26:20;;;;;;;27.05;17.40;;;;;;;5.32;73.98;102000.66;5063268;28;20118;-79
2022/05/02 04:28:45;;;;;;;28.23;18.15;;;;;;;5.33;74.47;102001.53;5061385;28;20035;-78
2022/05/02 04:31:10;;;;;;;29.23;17.55;;;;;;;5.34;74.19;101996.47;5063495;28;20096;-78
2022/05/02 04:33:36;;;;;;;28.67;17.33;;;;;;;5.35;74.22;102002.53;5058194;28;20029;-78
2022/05/02 04:36:01;;;;;;;27.83;17.23;;;;;;;5.31;74.81;101998.84;5057424;28;20071;-78
2022/05/02 04:38:28;;;;;;;31.02;18.45;;;;;;;5.30;74.32;101996.19;5058014;28;20165;-78
2022/05/02 04:40:55;;;;;;;27.90;18.08;;;;;;;5.27;74.36;102002.06;5058304;28;20227;-78
2022/05/02 04:43:20;;;;;;;28.20;16.70;;;;;;;5.25;73.68;102001.06;5057941;28;20261;-78
2022/05/02 04:45:45;;;;;;;28.60;17.13;;;;;;;5.23;74.31;101998.38;5059499;28;20081;-78
2022/05/02 04:48:11;;;;;;;27.42;15.23;;;;;;;5.24;74.19;101991.50;5060179;28;20032;-78
2022/05/02 04:50:36;;;;;;;26.33;16.58;;;;;;;5.24;74.15;101996.69;5059774;28;20323;-78
2022/05/02 04:53:01;;;;;;;28.52;17.13;;;;;;;5.26;74.47;102000.28;5059447;28;20021;-78
2022/05/02 04:55:27;;;;;;;27.50;17.55;;;;;;;5.26;74.79;102002.84;5051992;28;20041;-78
2022/05/02 04:57:52;;;;;;;28.40;17.58;;;;;;;5.28;75.46;102000.38;5055754;28;20306;-78
2022/05/02 05:00:17;;;;;;;27.70;17.20;;;;;;;5.27;75.31;102001.16;5054063;28;20208;-78
2022/05/02 05:02:43;;;;;;;28.90;18.17;;;;;;;5.31;75.86;102005.72;5059661;28;20105;-78
2022/05/02 05:05:08;;;;;;;28.30;17.63;;;;;;;5.39;75.92;102008.00;5056277;28;20028;-78
2022/05/02 05:07:36;;;;;;;27.92;17.77;;;;;;;5.41;76.30;102013.25;5050147;28;20025;-78
2022/05/02 05:10:01;;;;;;;30.30;18.33;;;;;;;5.44;76.59;102015.16;5053574;28;20079;-78
2022/05/02 05:12:33;;;;;;;29.83;19.30;;;;;;;5.50;77.15;102005.19;5056954;28;20050;-78
2022/05/02 05:19:08;;;;;;;29.33;17.85;;;;;;;5.62;75.57;102011.16;5060733;28;20091;-78
2022/05/02 05:21:51;;;;;;;28.35;18.08;;;;;;;5.65;76.41;102006.16;5059878;28;20337;-78
2022/05/02 05:24:38;;;;;;;32.75;19.85;;;;;;;5.70;76.52;102015.09;5056568;28;20026;-78
2022/05/02 05:27:25;;;;;;;33.97;20.77;;;;;;;5.75;77.20;102008.53;5058006;28;20092;-78
2022/05/02 05:30:02;;;;;;;33.70;20.63;;;;;;;5.80;77.98;102008.81;5055233;28;20033;-78
2022/05/02 05:32:31;;;;;;;36.53;20.40;;;;;;;5.85;77.64;102011.66;5063250;28;20024;-78
2022/05/02 05:35:07;;;;;;;36.00;20.48;;;;;;;5.91;77.62;102001.72;5052450;28;20039;-78
2022/05/02 05:37:39;;;;;;;37.38;21.20;;;;;;;5.97;78.69;102009.88;5071189;28;20013;-78
2022/05/02 05:40:24;;;;;;;37.20;23.30;;;;;;;6.04;77.96;101999.09;5059635;28;20057;-78
2022/05/02 05:43:37;;;;;;;42.13;24.15;;;;;;;6.16;78.74;102003.25;5051699;28;20028;-78
2022/05/02 05:46:28;;;;;;;40.17;23.67;;;;;;;6.27;78.51;102009.94;5061804;28;20017;-78
2022/05/02 05:49:08;;;;;;;40.53;24.60;;;;;;;6.34;79.56;102001.72;5059255;28;20050;-79
2022/05/02 05:51:36;;;;;;;38.83;23.98;;;;;;;6.41;79.67;102010.75;5070815;28;20207;-78
2022/05/02 05:54:23;;;;;;;40.38;24.00;;;;;;;6.49;79.99;102011.19;5071471;28;20252;-78
2022/05/02 05:57:07;;;;;;;41.30;24.27;;;;;;;6.61;79.77;102017.13;5061523;28;20086;-78
2022/05/02 05:59:44;;;;;;;39.00;22.77;;;;;;;6.71;80.97;102013.38;5054169;28;20040;-78
2022/05/02 06:02:35;;;;;;;43.58;24.13;;;;;;;6.79;80.79;102018.19;5062955;28;20075;-78
2022/05/02 06:05:01;;;;;;;39.97;24.38;;;;;;;6.90;80.50;102015.34;5057182;28;20029;-78
2022/05/02 06:07:28;;;;;;;42.08;24.42;;;;;;;6.98;80.84;102019.25;5064267;28;20021;-79
2022/05/02 06:09:56;;;;;;;41.55;25.00;;;;;;;7.09;80.96;102020.75;5055485;28;20017;-79
2022/05/02 06:12:24;;;;;;;45.35;25.70;;;;;;;7.39;81.57;102018.09;5064631;28;20028;-79
2022/05/02 06:20:23;;;;;;;45.92;24.85;;;;;;;9.18;75.79;102016.06;5059746;28;20087;-79
2022/05/02 06:22:48;;;;;;;48.55;26.83;;;;;;;9.66;74.36;102015.69;5062131;28;20082;-79
2022/05/02 06:25:14;;;;;;;46.97;25.88;;;;;;;9.96;73.30;102017.94;5061215;28;20021;-79
2022/05/02 06:27:42;;;;;;;44.10;25.50;;;;;;;10.20;71.97;102013.81;5058635;28;20107;-79
2022/05/02 06:30:09;;;;;;;46.45;25.98;;;;;;;10.25;71.99;102012.31;5057507;28;20024;-78
2022/05/02 06:32:36;;;;;;;46.53;25.83;;;;;;;10.31;71.21;102008.16;5050368;28;20060;-78
2022/05/02 06:35:03;;;;;;;45.88;25.48;;;;;;;10.29;71.42;102015.91;5063859;28;20104;-78
2022/05/02 06:37:35;;;;;;;49.38;27.60;;;;;;;10.30;71.88;102004.69;5062917;28;20305;-78
2022/05/02 06:40:19;;;;;;;51.90;27.50;;;;;;;10.29;71.05;102010.72;5060580;28;20017;-78
2022/05/02 06:42:54;;;;;;;54.13;28.63;;;;;;;10.25;71.38;102017.53;5062769;28;20029;-78
2022/05/02 06:45:30;;;;;;;56.63;28.75;;;;;;;10.23;70.98;102020.88;5065503;28;20021;-78
2022/05/02 06:48:21;;;;;;;54.25;28.80;;;;;;;10.23;70.29;102016.53;5060109;28;20013;-78
2022/05/02 06:50:54;;;;;;;68.07;31.35;;;;;;;10.20;71.51;102019.00;5057112;28;20028;-78
2022/05/02 06:53:42;;;;;;;63.75;31.60;;;;;;;10.23;71.25;102011.34;5074000;28;20179;-78
2022/05/02 06:56:17;;;;;;;62.47;31.05;;;;;;;10.26;70.63;102010.59;5080414;28;20074;-78
2022/05/02 06:59:16;;;;;;;67.85;31.75;;;;;;;10.27;70.95;102008.03;5061594;28;20027;-78
2022/05/02 07:01:57;;;;;;;65.45;31.35;;;;;;;10.35;70.74;102017.94;5060825;28;20191;-79
2022/05/02 07:04:42;;;;;;;61.30;29.27;;;;;;;10.37;70.23;102014.59;5057520;28;20172;-78
2022/05/02 07:07:35;;;;;;;71.22;32.90;;;;;;;10.42;70.84;102007.84;5056933;28;20040;-78
2022/05/02 07:10:12;;;;;;;77.90;33.38;;;;;;;10.47;69.66;102010.66;5058698;28;20020;-79
2022/05/02 07:13:08;;;;;;;71.00;32.63;;;;;;;10.53;69.88;102008.31;5054681;28;20169;-77
2022/05/02 07:15:43;;;;;;;77.30;32.35;;;;;;;10.62;69.71;102010.41;5059232;28;20025;-77
2022/05/02 07:18:27;;;;;;;71.53;31.80;;;;;;;10.70;69.35;102008.13;5055241;28;20296;-77
2022/05/02 07:21:27;;;;;;;69.85;31.55;;;;;;;10.76;69.08;102010.97;5057796;28;20041;-77
2022/05/02 07:24:13;;;;;;;66.82;30.80;;;;;;;10.82;67.74;102011.25;5059105;28;20219;-77
2022/05/02 07:26:39;;;;;;;77.50;31.73;;;;;;;10.89;68.68;102012.38;5052268;28;20025;-77
2022/05/02 07:29:05;;;;;;;70.30;32.22;;;;;;;10.96;68.51;102007.50;5060597;28;20130;-77
2022/05/02 07:31:31;;;;;;;69.93;31.58;;;;;;;11.05;69.22;102011.28;5063171;28;20024;-77
2022/05/02 07:33:57;;;;;;;70.30;30.85;;;;;;;11.12;69.30;102008.09;5064244;28;20175;-77
2022/05/02 07:36:25;;;;;;;67.88;31.10;;;;;;;11.18;68.29;102013.59;5063591;28;20035;-77
2022/05/02 07:38:54;;;;;;;69.93;31.33;;;;;;;11.25;65.92;102007.78;5049765;28;20218;-77
2022/05/02 07:41:25;;;;;;;67.65;30.70;;;;;;;11.31;67.11;102012.31;5063798;28;20084;-77
2022/05/02 07:43:56;;;;;;;72.95;30.77;;;;;;;11.37;66.58;102012.59;5060976;28;20091;-77
2022/05/02 07:46:26;;;;;;;67.32;31.35;;;;;;;11.44;66.20;102005.88;5063155;28;20051;-76
2022/05/02 07:48:51;;;;;;;;;;;;;;;11.51;67.54;101999.16;5063023;28;20048;-76
2022/05/02 07:51:18;;;;;;;75.97;30.83;;;;;;;11.58;64.76;101999.44;5079217;28;19908;-76
2022/05/02 07:53:45;;;;;;;78.70;33.50;;;;;;;11.65;62.84;102011.91;5062534;28;20033;-76
2022/05/02 07:56:12;;;;;;;78.43;32.58;;;;;;;11.71;64.98;102005.16;5064032;28;20028;-76
2022/05/02 07:58:43;;;;;;;72.82;31.67;;;;;;;11.78;62.95;102009.78;5062575;28;20032;-75
2022/05/02 08:01:09;;;;;;;75.78;32.63;;;;;;;11.80;63.24;102006.41;5062959;28;20049;-76
2022/05/02 08:03:35;;;;;;;81.50;33.13;;;;;;;11.85;61.56;102009.16;5063286;28;20029;-76
2022/05/02 08:06:35;;;;;;;67.10;30.35;;;;;;;11.89;62.48;102007.53;5078259;28;20052;-76
2022/05/02 08:09:06;;;;;;;73.57;31.30;;;;;;;11.95;61.18;102007.84;5055411;28;20033;-75
2022/05/02 08:11:48;;;;;;;75.00;30.40;;;;;;;12.09;62.34;102006.56;5062395;28;20028;-76
2022/05/02 08:14:17;;;;;;;73.68;30.27;;;;;;;12.17;61.87;102001.66;5061799;28;20279;-76
2022/05/02 08:17:11;;;;;;;67.13;29.63;;;;;;;12.24;61.38;102002.75;5062567;28;20342;-76
2022/05/02 08:19:49;;;;;;;73.10;29.65;;;;;;;12.34;61.73;102004.88;5061833;28;20071;-76
2022/05/02 08:28:27;;;;;;;61.58;28.25;;;;;;;12.67;60.78;101999.91;5061796;28;20032;-76
2022/05/02 08:31:01;;;;;;;68.60;29.40;;;;;;;12.73;58.64;102003.53;5078618;28;20038;-77
2022/05/02 08:33:29;;;;;;;68.82;27.63;;;;;;;12.83;57.69;101995.16;5062347;28;20025;-77
2022/05/02 08:36:02;;;;;;;60.97;26.85;;;;;;;12.93;58.79;101997.22;5063012;28;20071;-77
2022/05/02 08:38:44;;;;;;;65.97;28.63;;;;;;;12.97;58.58;101999.13;5054658;28;20022;-76
2022/05/02 08:41:30;;;;;;;63.55;26.17;;;;;;;13.08;58.27;101996.84;5055628;28;20077;-76
2022/05/02 08:44:23;;;;;;;58.28;24.10;;;;;;;13.20;59.38;102002.47;5057118;28;20040;-77
2022/05/02 08:47:16;;;;;;;55.20;25.08;;;;;;;13.30;57.35;101995.78;5061480;28;20032;-76
2022/05/02 08:50:04;;;;;;;56.83;23.95;;;;;;;13.36;56.78;101988.16;5062167;28;20032;-75
2022/05/02 08:52:52;;;;;;;57.05;25.33;;;;;;;13.43;56.80;101988.38;5062336;28;20319;-75
2022/05/02 08:55:30;;;;;;;53.65;24.48;;;;;;;13.56;57.28;101996.63;5062757;28;20016;-75
2022/05/02 08:58:11;;;;;;;51.58;24.67;;;;;;;13.55;53.71;101991.34;5061383;28;20021;-76
2022/05/02 09:01:03;;;;;;;49.33;23.63;;;;;;;13.69;56.20;101991.75;5052056;28;20329;-75
2022/05/02 09:03:50;;;;;;;43.25;20.02;;;;;;;13.79;55.35;101993.78;5061633;28;20048;-75
2022/05/02 09:06:49;;;;;;;44.92;20.95;;;;;;;13.87;54.36;101996.63;5059162;28;20021;-76
2022/05/02 09:09:17;;;;;;;43.42;21.50;;;;;;;13.92;53.06;101992.41;5061061;28;20028;-75
2022/05/02 09:12:08;;;;;;;49.58;23.95;;;;;;;13.96;52.88;101993.38;5060633;28;20043;-76
2022/05/02 09:14:51;;;;;;;52.85;24.92;;;;;;;13.99;54.93;101986.50;5061020;28;20044;-76
2022/05/02 09:17:58;;;;;;;46.40;22.42;;;;;;;14.07;54.49;101990.19;5061009;28;20037;-75
2022/05/02 09:21:01;;;;;;;48.25;22.60;;;;;;;14.13;51.65;101993.84;5051853;28;20048;-75
2022/05/02 09:23:29;;;;;;;44.42;20.90;;;;;;;14.13;49.64;101988.63;5041122;28;20048;-77
2022/05/02 09:25:58;;;;;;;47.92;22.92;;;;;;;14.18;51.71;101986.97;5060520;28;20071;-75
2022/05/02 09:28:36;;;;;;;49.95;24.05;;;;;;;14.27;54.30;101987.25;5061166;28;20025;-75
2022/05/02 09:31:20;;;;;;;51.47;23.38;;;;;;;14.31;51.59;101981.25;5060135;28;20100;-75
2022/05/02 09:34:10;;;;;;;45.88;22.70;;;;;;;14.27;49.68;101976.75;5062275;28;20275;-76
2022/05/02 09:36:43;;;;;;;47.58;22.52;;;;;;;14.31;52.29;101978.63;5061736;28;20056;-75
2022/05/02 09:39:20;;;;;;;44.67;22.27;;;;;;;14.45;53.49;101976.34;5075986;28;20017;-75
2022/05/02 09:42:24;;;;;;;51.72;24.08;;;;;;;14.54;51.74;101978.31;5067377;28;20151;-76
2022/05/02 09:51:01;;;;;;;47.40;22.58;;;;;;;14.81;49.24;101958.91;5057931;28;20051;-76
2022/05/02 09:53:40;;;;;;;46.13;22.35;;;;;;;14.89;50.26;101960.00;5060957;28;20263;-76
2022/05/02 09:59:07;;;;;;;43.35;22.13;;;;;;;15.08;49.69;101964.81;5049452;28;20112;-76
2022/05/02 10:01:33;;;;;;;40.22;20.40;;;;;;;15.09;48.48;101952.56;5061579;28;20071;-76
2022/05/02 10:04:13;;;;;;;41.60;21.67;;;;;;;15.12;48.89;101958.78;5077659;28;20045;-75
2022/05/02 10:06:38;;;;;;;42.53;20.83;;;;;;;15.15;48.21;101959.69;5061195;28;20183;-76
2022/05/02 10:09:31;;;;;;;39.70;20.60;;;;;;;15.18;48.38;101951.88;5061473;28;20064;-76
2022/05/02 10:12:34;;;;;;;39.72;20.25;;;;;;;15.18;48.26;101959.75;5060314;28;20031;-76
2022/05/02 10:15:36;;;;;;;44.72;20.65;;;;;;;15.25;49.05;101957.31;5062199;28;20333;-76
2022/05/02 10:18:25;;;;;;;45.75;21.15;;;;;;;15.24;48.45;101950.28;5064451;28;20044;-76
2022/05/02 10:21:20;;;;;;;41.03;19.97;;;;;;;15.20;48.72;101950.19;5061672;28;20067;-76
2022/05/02 10:24:02;;;;;;;42.42;21.63;;;;;;;15.20;47.68;101953.69;5065504;28;20025;-76
2022/05/02 10:27:17;;;;;;;44.35;22.02;;;;;;;15.24;48.57;101959.91;5064943;28;20036;-76
2022/05/02 10:29:45;;;;;;;40.30;20.80;;;;;;;15.22;46.31;101949.38;5062400;28;20052;-76
2022/05/02 10:32:32;;;;;;;42.83;21.05;;;;;;;15.26;47.00;101952.94;5051705;28;20030;-76
2022/05/02 10:35:02;;;;;;;42.60;21.25;;;;;;;15.29;46.98;101948.66;5065246;28;20088;-76
2022/05/02 10:37:32;;;;;;;45.42;23.33;;;;;;;15.25;44.27;101946.81;5064500;28;20256;-76
2022/05/02 10:40:04;;;;;;;45.47;22.52;;;;;;;15.23;45.78;101948.50;5065368;28;20291;-76
2022/05/02 10:42:31;;;;;;;44.97;22.58;;;;;;;15.29;45.06;101940.78;5061192;28;20051;-76
2022/05/02 10:45:08;;;;;;;45.53;22.42;;;;;;;15.46;49.07;101935.88;5063920;28;20091;-76
2022/05/02 10:47:39;;;;;;;40.45;20.92;;;;;;;15.57;45.83;101932.56;5061072;28;20025;-75
2022/05/02 10:50:19;;;;;;;43.67;22.20;;;;;;;15.61;45.57;101927.44;5058493;28;20036;-76
2022/05/02 10:53:16;;;;;;;47.33;23.33;;;;;;;15.74;47.08;101928.56;5063361;28;20060;-76
2022/05/02 10:55:54;;;;;;;39.85;20.42;;;;;;;15.80;47.47;101931.34;5064981;28;20025;-75
2022/05/02 10:58:22;;;;;;;47.63;22.05;;;;;;;15.94;45.36;101928.09;5064305;28;20099;-76
2022/05/02 11:01:02;;;;;;;40.22;21.65;;;;;;;16.02;46.68;101930.84;5053399;28;20036;-76
2022/05/02 11:03:58;;;;;;;41.95;20.92;;;;;;;16.06;45.98;101928.31;5064763;28;20082;-76
2022/05/02 11:06:38;;;;;;;42.70;21.35;;;;;;;16.10;44.77;101919.63;5063010;28;20048;-76
2022/05/02 11:09:06;;;;;;;42.25;21.58;;;;;;;16.06;42.13;101920.44;5064683;28;20055;-76
2022/05/02 11:11:50;;;;;;;43.33;20.92;;;;;;;16.15;46.88;101923.22;5079297;28;20108;-76
2022/05/02 11:14:30;;;;;;;44.80;23.13;;;;;;;16.15;42.62;101920.59;5063677;28;20065;-76
2022/05/02 11:17:08;;;;;;;46.75;22.67;;;;;;;16.05;42.12;101916.03;5064316;28;20329;-76
2022/05/02 11:22:39;;;;;;;44.03;21.35;;;;;;;16.15;44.06;101902.19;5052028;28;20039;-76
2022/05/02 11:25:11;;;;;;;44.53;22.42;;;;;;;16.29;47.07;101905.06;5063684;28;20024;-76
2022/05/02 11:28:15;;;;;;;41.33;21.95;;;;;;;16.35;45.54;101904.25;5064313;28;20032;-76
2022/05/02 11:30:54;;;;;;;42.67;21.00;;;;;;;16.49;46.93;101907.13;5052090;28;20051;-76
2022/05/02 11:33:36;;;;;;;44.65;22.60;;;;;;;16.47;43.32;101895.72;5062835;28;20041;-76
2022/05/02 11:36:06;;;;;;;41.47;21.10;;;;;;;16.59;45.66;101881.84;5064124;28;20073;-75
2022/05/02 11:38:39;;;;;;;43.90;21.77;;;;;;;16.63;45.03;101883.69;5079194;28;20094;-76
2022/05/02 11:41:19;;;;;;;39.13;20.35;;;;;;;16.67;44.21;101880.25;5063426;28;20043;-76
2022/05/02 11:43:46;;;;;;;44.40;22.80;;;;;;;16.76;43.54;101885.63;5063483;28;20082;-76
2022/05/02 11:46:18;;;;;;;40.95;21.25;;;;;;;16.82;44.32;101884.84;5062941;28;20302;-76
2022/05/02 11:48:53;;;;;;;40.35;21.55;;;;;;;16.86;43.74;101882.25;5050061;28;20028;-76
2022/05/02 11:52:00;;;;;;;42.45;21.80;;;;;;;16.93;45.79;101885.91;5063240;28;20013;-76
2022/05/02 11:54:35;;;;;;;39.03;19.98;;;;;;;17.02;44.02;101878.13;5039585;28;20088;-76
2022/05/02 11:57:35;;;;;;;45.50;21.13;;;;;;;17.10;44.24;101883.47;5028489;28;20029;-76
2022/05/02 12:00:06;;;;;;;42.80;22.48;;;;;;;17.10;41.55;101886.13;5058340;28;20211;-76
2022/05/02 12:02:38;;;;;;;44.00;23.48;;;;;;;17.01;41.00;101881.63;5063585;28;20033;-76
2022/05/02 12:05:27;;;;;;;39.08;21.92;;;;;;;17.06;45.10;101888.69;5061499;28;20174;-76
2022/05/02 12:07:54;;;;;;;40.63;21.88;;;;;;;17.01;41.46;101883.38;5062899;28;20037;-76
2022/05/02 12:10:31;;;;;;;38.58;21.30;;;;;;;17.02;40.35;101875.50;5062751;28;20041;-76
2022/05/02 12:12:57;;;;;;;35.60;18.60;;;;;;;17.16;43.12;101875.69;5062702;28;20033;-76